sensor_id;sensor_type;location;lat;lon;timestamp;P1;durP1;ratioP1;P2;durP2;ratioP2
2259;SDS011;333;48.800;9.530;2022-08-19T00:00:09;13.40;;;12.20;;
2259;SDS011;333;48.800;9.530;2022-08-19T00:02:40;13.93;;;12.63;;
2259;SDS011;333;48.800;9.530;2022-08-19T00:05:08;13.37;;;12.17;;
2259;SDS011;333;48.800;9.530;2022-08-19T00:07:36;13.27;;;11.87;;
2259;SDS011;333;48.800;9.530;2022-08-19T00:10:04;12.90;;;11.70;;
2259;SDS011;333;48.800;9.530;2022-08-19T00:12:31;13.27;;;11.97;;
2259;SDS011;333;48.800;9.530;2022-08-19T00:14:58;11.63;;;10.53;;
2259;SDS011;333;48.800;9.530;2022-08-19T00:17:25;11.60;;;10.60;;
2259;SDS011;333;48.800;9.530;2022-08-19T00:19:54;11.90;;;10.90;;
2259;SDS011;333;48.800;9.530;2022-08-19T00:22:22;11.70;;;10.60;;
2259;SDS011;333;48.800;9.530;2022-08-19T00:24:52;12.90;;;11.60;;
2259;SDS011;333;48.800;9.530;2022-08-19T00:27:19;11.37;;;10.37;;
2259;SDS011;333;48.800;9.530;2022-08-19T00:29:46;12.10;;;10.90;;
2259;SDS011;333;48.800;9.530;2022-08-19T00:32:13;12.17;;;11.00;;
2259;SDS011;333;48.800;9.530;2022-08-19T00:34:40;11.80;;;10.80;;
2259;SDS011;333;48.800;9.530;2022-08-19T00:37:09;12.67;;;11.47;;
2259;SDS011;333;48.800;9.530;2022-08-19T00:39:36;12.17;;;10.97;;
2259;SDS011;333;48.800;9.530;2022-08-19T00:42:04;15.10;;;10.40;;
2259;SDS011;333;48.800;9.530;2022-08-19T00:44:31;13.13;;;11.93;;
2259;SDS011;333;48.800;9.530;2022-08-19T00:46:58;12.53;;;11.40;;
2259;SDS011;333;48.800;9.530;2022-08-19T00:49:27;13.30;;;12.10;;
2259;SDS011;333;48.800;9.530;2022-08-19T00:51:55;12.10;;;10.90;;
2259;SDS011;333;48.800;9.530;2022-08-19T00:54:24;12.93;;;11.73;;
2259;SDS011;333;48.800;9.530;2022-08-19T00:56:51;14.13;;;12.53;;
2259;SDS011;333;48.800;9.530;2022-08-19T00:59:19;12.30;;;11.20;;
2259;SDS011;333;48.800;9.530;2022-08-19T01:01:47;12.57;;;11.37;;
2259;SDS011;333;48.800;9.530;2022-08-19T01:04:14;13.07;;;11.87;;
2259;SDS011;333;48.800;9.530;2022-08-19T01:06:41;13.53;;;12.07;;
2259;SDS011;333;48.800;9.530;2022-08-19T01:09:08;12.63;;;11.53;;
2259;SDS011;333;48.800;9.530;2022-08-19T01:11:38;14.23;;;12.80;;
2259;SDS011;333;48.800;9.530;2022-08-19T01:14:06;13.43;;;12.13;;
2259;SDS011;333;48.800;9.530;2022-08-19T01:16:34;12.80;;;10.83;;
2259;SDS011;333;48.800;9.530;2022-08-19T01:19:02;12.50;;;11.23;;
2259;SDS011;333;48.800;9.530;2022-08-19T01:21:32;12.93;;;11.73;;
2259;SDS011;333;48.800;9.530;2022-08-19T01:24:02;12.77;;;11.47;;
2259;SDS011;333;48.800;9.530;2022-08-19T01:26:29;13.97;;;12.67;;
2259;SDS011;333;48.800;9.530;2022-08-19T01:28:57;13.80;;;12.43;;
2259;SDS011;333;48.800;9.530;2022-08-19T01:31:27;15.70;;;12.70;;
2259;SDS011;333;48.800;9.530;2022-08-19T01:33:56;13.90;;;12.70;;
2259;SDS011;333;48.800;9.530;2022-08-19T01:36:25;15.17;;;13.30;;
2259;SDS011;333;48.800;9.530;2022-08-19T01:38:53;13.17;;;11.77;;
2259;SDS011;333;48.800;9.530;2022-08-19T01:41:22;13.97;;;12.63;;
2259;SDS011;333;48.800;9.530;2022-08-19T01:43:49;14.07;;;12.67;;
2259;SDS011;333;48.800;9.530;2022-08-19T01:46:16;13.80;;;12.53;;
2259;SDS011;333;48.800;9.530;2022-08-19T01:48:44;14.73;;;13.33;;
2259;SDS011;333;48.800;9.530;2022-08-19T01:51:12;15.03;;;13.40;;
2259;SDS011;333;48.800;9.530;2022-08-19T01:53:39;15.07;;;12.93;;
2259;SDS011;333;48.800;9.530;2022-08-19T01:56:06;14.20;;;12.77;;
2259;SDS011;333;48.800;9.530;2022-08-19T01:58:36;13.43;;;12.10;;
2259;SDS011;333;48.800;9.530;2022-08-19T02:01:04;13.87;;;12.50;;
2259;SDS011;333;48.800;9.530;2022-08-19T02:03:32;14.27;;;12.97;;
2259;SDS011;333;48.800;9.530;2022-08-19T02:06:00;14.33;;;13.03;;
2259;SDS011;333;48.800;9.530;2022-08-19T02:08:28;17.50;;;12.57;;
2259;SDS011;333;48.800;9.530;2022-08-19T02:10:56;13.57;;;12.27;;
2259;SDS011;333;48.800;9.530;2022-08-19T02:13:23;14.37;;;13.07;;
2259;SDS011;333;48.800;9.530;2022-08-19T02:15:52;13.53;;;12.13;;
2259;SDS011;333;48.800;9.530;2022-08-19T02:18:19;14.60;;;13.20;;
2259;SDS011;333;48.800;9.530;2022-08-19T02:20:46;14.20;;;12.90;;
2259;SDS011;333;48.800;9.530;2022-08-19T02:23:14;16.10;;;12.87;;
2259;SDS011;333;48.800;9.530;2022-08-19T02:25:45;13.63;;;12.27;;
2259;SDS011;333;48.800;9.530;2022-08-19T02:28:13;14.80;;;13.43;;
2259;SDS011;333;48.800;9.530;2022-08-19T02:30:40;15.33;;;13.73;;
2259;SDS011;333;48.800;9.530;2022-08-19T02:33:09;13.77;;;12.47;;
2259;SDS011;333;48.800;9.530;2022-08-19T02:35:36;14.43;;;12.93;;
2259;SDS011;333;48.800;9.530;2022-08-19T02:38:03;16.37;;;14.60;;
2259;SDS011;333;48.800;9.530;2022-08-19T02:40:49;14.07;;;11.90;;
2259;SDS011;333;48.800;9.530;2022-08-19T02:43:18;16.47;;;14.90;;
2259;SDS011;333;48.800;9.530;2022-08-19T02:45:46;13.60;;;12.30;;
2259;SDS011;333;48.800;9.530;2022-08-19T02:48:15;15.73;;;13.90;;
2259;SDS011;333;48.800;9.530;2022-08-19T02:50:43;14.00;;;12.60;;
2259;SDS011;333;48.800;9.530;2022-08-19T02:53:10;13.57;;;12.27;;
2259;SDS011;333;48.800;9.530;2022-08-19T02:55:42;15.33;;;13.83;;
2259;SDS011;333;48.800;9.530;2022-08-19T02:58:09;13.87;;;12.53;;
2259;SDS011;333;48.800;9.530;2022-08-19T03:00:40;16.43;;;14.80;;
2259;SDS011;333;48.800;9.530;2022-08-19T03:03:08;15.00;;;13.50;;
2259;SDS011;333;48.800;9.530;2022-08-19T03:05:37;14.50;;;13.10;;
2259;SDS011;333;48.800;9.530;2022-08-19T03:08:04;16.20;;;13.37;;
2259;SDS011;333;48.800;9.530;2022-08-19T03:10:31;17.00;;;15.20;;
2259;SDS011;333;48.800;9.530;2022-08-19T03:12:58;14.83;;;13.13;;
2259;SDS011;333;48.800;9.530;2022-08-19T03:15:25;14.83;;;13.33;;
2259;SDS011;333;48.800;9.530;2022-08-19T03:17:53;15.53;;;13.57;;
2259;SDS011;333;48.800;9.530;2022-08-19T03:20:20;16.10;;;14.50;;
2259;SDS011;333;48.800;9.530;2022-08-19T03:22:48;15.87;;;14.13;;
2259;SDS011;333;48.800;9.530;2022-08-19T03:25:15;16.17;;;14.00;;
2259;SDS011;333;48.800;9.530;2022-08-19T03:27:42;15.07;;;12.97;;
2259;SDS011;333;48.800;9.530;2022-08-19T03:30:14;17.50;;;13.80;;
2259;SDS011;333;48.800;9.530;2022-08-19T03:32:41;17.07;;;15.27;;
2259;SDS011;333;48.800;9.530;2022-08-19T03:35:08;18.33;;;14.87;;
2259;SDS011;333;48.800;9.530;2022-08-19T03:37:35;16.90;;;14.17;;
2259;SDS011;333;48.800;9.530;2022-08-19T03:40:04;16.00;;;14.40;;
2259;SDS011;333;48.800;9.530;2022-08-19T03:42:32;17.03;;;14.33;;
2259;SDS011;333;48.800;9.530;2022-08-19T03:44:59;18.90;;;15.47;;
2259;SDS011;333;48.800;9.530;2022-08-19T03:47:26;16.67;;;14.93;;
2259;SDS011;333;48.800;9.530;2022-08-19T03:49:53;16.53;;;14.60;;
2259;SDS011;333;48.800;9.530;2022-08-19T03:52:20;15.27;;;13.60;;
2259;SDS011;333;48.800;9.530;2022-08-19T03:54:48;19.00;;;15.83;;
2259;SDS011;333;48.800;9.530;2022-08-19T03:57:16;17.00;;;14.60;;
2259;SDS011;333;48.800;9.530;2022-08-19T03:59:43;16.90;;;15.10;;
2259;SDS011;333;48.800;9.530;2022-08-19T04:02:11;16.07;;;14.13;;
2259;SDS011;333;48.800;9.530;2022-08-19T04:04:39;17.30;;;14.60;;
2259;SDS011;333;48.800;9.530;2022-08-19T04:07:08;16.73;;;14.90;;
2259;SDS011;333;48.800;9.530;2022-08-19T04:09:35;19.00;;;16.50;;
2259;SDS011;333;48.800;9.530;2022-08-19T04:12:03;15.93;;;14.23;;
2259;SDS011;333;48.800;9.530;2022-08-19T04:14:33;15.93;;;14.23;;
2259;SDS011;333;48.800;9.530;2022-08-19T04:17:01;17.07;;;15.47;;
2259;SDS011;333;48.800;9.530;2022-08-19T04:19:30;17.07;;;15.27;;
2259;SDS011;333;48.800;9.530;2022-08-19T04:21:57;15.73;;;13.73;;
2259;SDS011;333;48.800;9.530;2022-08-19T04:24:25;16.10;;;14.40;;
2259;SDS011;333;48.800;9.530;2022-08-19T04:26:52;15.10;;;13.50;;
2259;SDS011;333;48.800;9.530;2022-08-19T04:29:20;17.00;;;14.37;;
2259;SDS011;333;48.800;9.530;2022-08-19T04:31:51;15.87;;;14.30;;
2259;SDS011;333;48.800;9.530;2022-08-19T04:34:19;15.47;;;13.90;;
2259;SDS011;333;48.800;9.530;2022-08-19T04:36:47;17.93;;;15.57;;
2259;SDS011;333;48.800;9.530;2022-08-19T04:39:17;18.93;;;16.00;;
2259;SDS011;333;48.800;9.530;2022-08-19T04:41:44;17.00;;;14.10;;
2259;SDS011;333;48.800;9.530;2022-08-19T04:44:29;17.37;;;15.40;;
2259;SDS011;333;48.800;9.530;2022-08-19T04:46:58;17.33;;;14.10;;
2259;SDS011;333;48.800;9.530;2022-08-19T04:49:26;16.87;;;15.10;;
2259;SDS011;333;48.800;9.530;2022-08-19T04:51:53;16.97;;;15.27;;
2259;SDS011;333;48.800;9.530;2022-08-19T04:54:21;17.03;;;14.73;;
2259;SDS011;333;48.800;9.530;2022-08-19T04:56:50;16.90;;;15.07;;
2259;SDS011;333;48.800;9.530;2022-08-19T04:59:18;20.30;;;15.80;;
2259;SDS011;333;48.800;9.530;2022-08-19T05:01:46;17.87;;;14.87;;
2259;SDS011;333;48.800;9.530;2022-08-19T05:04:17;18.10;;;15.60;;
2259;SDS011;333;48.800;9.530;2022-08-19T05:06:45;20.60;;;16.60;;
2259;SDS011;333;48.800;9.530;2022-08-19T05:09:13;16.90;;;15.20;;
2259;SDS011;333;48.800;9.530;2022-08-19T05:11:41;18.10;;;16.20;;
2259;SDS011;333;48.800;9.530;2022-08-19T05:14:09;18.50;;;15.57;;
2259;SDS011;333;48.800;9.530;2022-08-19T05:16:37;17.43;;;15.30;;
2259;SDS011;333;48.800;9.530;2022-08-19T05:19:04;18.90;;;15.93;;
2259;SDS011;333;48.800;9.530;2022-08-19T05:21:50;15.70;;;14.07;;
2259;SDS011;333;48.800;9.530;2022-08-19T05:24:47;16.47;;;14.20;;
2259;SDS011;333;48.800;9.530;2022-08-19T05:27:14;16.90;;;15.20;;
2259;SDS011;333;48.800;9.530;2022-08-19T05:29:41;15.57;;;14.00;;
2259;SDS011;333;48.800;9.530;2022-08-19T05:32:08;17.60;;;15.70;;
2259;SDS011;333;48.800;9.530;2022-08-19T05:34:36;21.90;;;17.50;;
2259;SDS011;333;48.800;9.530;2022-08-19T05:37:05;20.90;;;17.07;;
2259;SDS011;333;48.800;9.530;2022-08-19T05:39:34;19.53;;;16.97;;
2259;SDS011;333;48.800;9.530;2022-08-19T05:42:03;18.57;;;16.13;;
2259;SDS011;333;48.800;9.530;2022-08-19T05:44:32;19.00;;;15.10;;
2259;SDS011;333;48.800;9.530;2022-08-19T05:47:00;22.17;;;16.97;;
2259;SDS011;333;48.800;9.530;2022-08-19T05:49:28;20.67;;;17.63;;
2259;SDS011;333;48.800;9.530;2022-08-19T05:51:56;20.23;;;16.23;;
2259;SDS011;333;48.800;9.530;2022-08-19T05:54:25;19.47;;;16.80;;
2259;SDS011;333;48.800;9.530;2022-08-19T05:56:53;18.60;;;16.37;;
2259;SDS011;333;48.800;9.530;2022-08-19T05:59:20;19.90;;;17.27;;
2259;SDS011;333;48.800;9.530;2022-08-19T06:01:48;21.73;;;18.40;;
2259;SDS011;333;48.800;9.530;2022-08-19T06:04:17;18.73;;;16.77;;
2259;SDS011;333;48.800;9.530;2022-08-19T06:06:44;18.10;;;15.80;;
2259;SDS011;333;48.800;9.530;2022-08-19T06:09:12;20.33;;;17.67;;
2259;SDS011;333;48.800;9.530;2022-08-19T06:11:41;23.27;;;17.67;;
2259;SDS011;333;48.800;9.530;2022-08-19T06:14:10;19.50;;;15.93;;
2259;SDS011;333;48.800;9.530;2022-08-19T06:16:38;20.03;;;17.83;;
2259;SDS011;333;48.800;9.530;2022-08-19T06:19:06;23.87;;;18.80;;
2259;SDS011;333;48.800;9.530;2022-08-19T06:21:35;20.87;;;18.63;;
2259;SDS011;333;48.800;9.530;2022-08-19T06:24:03;21.87;;;18.97;;
2259;SDS011;333;48.800;9.530;2022-08-19T06:26:31;22.23;;;17.80;;
2259;SDS011;333;48.800;9.530;2022-08-19T06:29:01;22.20;;;17.77;;
2259;SDS011;333;48.800;9.530;2022-08-19T06:31:29;20.83;;;17.53;;
2259;SDS011;333;48.800;9.530;2022-08-19T06:33:58;20.43;;;17.67;;
2259;SDS011;333;48.800;9.530;2022-08-19T06:36:27;23.13;;;18.93;;
2259;SDS011;333;48.800;9.530;2022-08-19T06:38:56;22.50;;;20.10;;
2259;SDS011;333;48.800;9.530;2022-08-19T06:41:24;23.13;;;19.00;;
2259;SDS011;333;48.800;9.530;2022-08-19T06:43:51;24.83;;;20.20;;
2259;SDS011;333;48.800;9.530;2022-08-19T06:46:20;25.80;;;20.90;;
2259;SDS011;333;48.800;9.530;2022-08-19T06:48:48;26.10;;;20.80;;
2259;SDS011;333;48.800;9.530;2022-08-19T06:51:18;23.33;;;20.40;;
2259;SDS011;333;48.800;9.530;2022-08-19T06:53:46;24.73;;;20.23;;
2259;SDS011;333;48.800;9.530;2022-08-19T06:56:13;25.13;;;20.77;;
2259;SDS011;333;48.800;9.530;2022-08-19T06:58:41;25.87;;;20.90;;
2259;SDS011;333;48.800;9.530;2022-08-19T07:01:08;25.10;;;20.00;;
2259;SDS011;333;48.800;9.530;2022-08-19T07:03:38;23.53;;;21.00;;
2259;SDS011;333;48.800;9.530;2022-08-19T07:06:05;23.47;;;19.23;;
2259;SDS011;333;48.800;9.530;2022-08-19T07:08:34;24.17;;;20.43;;
2259;SDS011;333;48.800;9.530;2022-08-19T07:11:02;24.23;;;21.40;;
2259;SDS011;333;48.800;9.530;2022-08-19T07:13:29;26.67;;;22.20;;
2259;SDS011;333;48.800;9.530;2022-08-19T07:16:02;26.40;;;21.90;;
2259;SDS011;333;48.800;9.530;2022-08-19T07:18:29;24.17;;;21.47;;
2259;SDS011;333;48.800;9.530;2022-08-19T07:21:03;26.03;;;21.20;;
2259;SDS011;333;48.800;9.530;2022-08-19T07:23:30;29.47;;;23.37;;
2259;SDS011;333;48.800;9.530;2022-08-19T07:25:57;31.23;;;23.83;;
2259;SDS011;333;48.800;9.530;2022-08-19T07:28:24;24.93;;;21.10;;
2259;SDS011;333;48.800;9.530;2022-08-19T07:30:52;24.30;;;21.10;;
2259;SDS011;333;48.800;9.530;2022-08-19T07:33:19;29.40;;;22.10;;
2259;SDS011;333;48.800;9.530;2022-08-19T07:35:46;28.47;;;22.53;;
2259;SDS011;333;48.800;9.530;2022-08-19T07:38:15;30.90;;;23.87;;
2259;SDS011;333;48.800;9.530;2022-08-19T07:40:43;27.13;;;23.67;;
2259;SDS011;333;48.800;9.530;2022-08-19T07:43:11;24.13;;;21.53;;
2259;SDS011;333;48.800;9.530;2022-08-19T07:45:38;27.63;;;23.67;;
2259;SDS011;333;48.800;9.530;2022-08-19T07:48:05;27.50;;;22.17;;
2259;SDS011;333;48.800;9.530;2022-08-19T07:50:32;26.90;;;24.00;;
2259;SDS011;333;48.800;9.530;2022-08-19T07:53:00;25.80;;;23.07;;
2259;SDS011;333;48.800;9.530;2022-08-19T07:55:28;27.07;;;23.27;;
2259;SDS011;333;48.800;9.530;2022-08-19T07:57:55;25.37;;;22.63;;
2259;SDS011;333;48.800;9.530;2022-08-19T08:00:23;27.17;;;22.53;;
2259;SDS011;333;48.800;9.530;2022-08-19T08:02:50;26.60;;;23.27;;
2259;SDS011;333;48.800;9.530;2022-08-19T08:05:17;27.13;;;22.70;;
2259;SDS011;333;48.800;9.530;2022-08-19T08:08:02;23.30;;;20.87;;
2259;SDS011;333;48.800;9.530;2022-08-19T08:11:03;26.20;;;22.13;;
2259;SDS011;333;48.800;9.530;2022-08-19T08:13:30;28.07;;;22.77;;
2259;SDS011;333;48.800;9.530;2022-08-19T08:16:00;22.70;;;20.30;;
2259;SDS011;333;48.800;9.530;2022-08-19T08:18:27;22.87;;;20.30;;
2259;SDS011;333;48.800;9.530;2022-08-19T08:20:55;25.30;;;22.53;;
2259;SDS011;333;48.800;9.530;2022-08-19T08:23:22;24.03;;;21.33;;
2259;SDS011;333;48.800;9.530;2022-08-19T08:25:50;24.20;;;21.50;;
2259;SDS011;333;48.800;9.530;2022-08-19T08:28:19;23.80;;;21.40;;
2259;SDS011;333;48.800;9.530;2022-08-19T08:30:46;25.57;;;22.00;;
2259;SDS011;333;48.800;9.530;2022-08-19T08:33:17;25.37;;;21.70;;
2259;SDS011;333;48.800;9.530;2022-08-19T08:35:44;27.57;;;23.10;;
2259;SDS011;333;48.800;9.530;2022-08-19T08:38:11;27.87;;;22.67;;
2259;SDS011;333;48.800;9.530;2022-08-19T08:40:42;25.17;;;22.47;;
2259;SDS011;333;48.800;9.530;2022-08-19T08:43:20;24.80;;;21.80;;
2259;SDS011;333;48.800;9.530;2022-08-19T08:45:52;24.67;;;21.70;;
2259;SDS011;333;48.800;9.530;2022-08-19T08:48:20;29.00;;;21.73;;
2259;SDS011;333;48.800;9.530;2022-08-19T08:50:49;26.17;;;21.53;;
2259;SDS011;333;48.800;9.530;2022-08-19T08:53:18;24.83;;;21.87;;
2259;SDS011;333;48.800;9.530;2022-08-19T08:55:46;26.20;;;23.20;;
2259;SDS011;333;48.800;9.530;2022-08-19T08:58:15;28.50;;;22.73;;
2259;SDS011;333;48.800;9.530;2022-08-19T09:00:43;27.83;;;21.90;;
2259;SDS011;333;48.800;9.530;2022-08-19T09:03:15;27.80;;;21.87;;
2259;SDS011;333;48.800;9.530;2022-08-19T09:05:46;25.97;;;21.80;;
2259;SDS011;333;48.800;9.530;2022-08-19T09:08:17;25.27;;;21.20;;
2259;SDS011;333;48.800;9.530;2022-08-19T09:10:49;20.70;;;18.40;;
2259;SDS011;333;48.800;9.530;2022-08-19T09:13:20;23.20;;;20.43;;
2259;SDS011;333;48.800;9.530;2022-08-19T09:15:52;23.97;;;20.17;;
2259;SDS011;333;48.800;9.530;2022-08-19T09:18:22;25.33;;;19.90;;
2259;SDS011;333;48.800;9.530;2022-08-19T09:20:49;22.30;;;20.00;;
2259;SDS011;333;48.800;9.530;2022-08-19T09:23:16;22.70;;;19.77;;
2259;SDS011;333;48.800;9.530;2022-08-19T09:25:44;26.13;;;20.27;;
2259;SDS011;333;48.800;9.530;2022-08-19T09:28:12;23.77;;;19.97;;
2259;SDS011;333;48.800;9.530;2022-08-19T09:30:40;22.10;;;19.13;;
2259;SDS011;333;48.800;9.530;2022-08-19T09:33:07;21.10;;;17.97;;
2259;SDS011;333;48.800;9.530;2022-08-19T09:35:36;21.17;;;18.63;;
2259;SDS011;333;48.800;9.530;2022-08-19T09:38:03;23.57;;;18.40;;
2259;SDS011;333;48.800;9.530;2022-08-19T09:40:30;24.33;;;18.53;;
2259;SDS011;333;48.800;9.530;2022-08-19T09:42:58;20.07;;;18.00;;
2259;SDS011;333;48.800;9.530;2022-08-19T09:45:27;27.50;;;18.50;;
2259;SDS011;333;48.800;9.530;2022-08-19T09:47:55;20.23;;;17.40;;
2259;SDS011;333;48.800;9.530;2022-08-19T09:50:23;20.80;;;17.63;;
2259;SDS011;333;48.800;9.530;2022-08-19T09:52:51;19.17;;;16.50;;
2259;SDS011;333;48.800;9.530;2022-08-19T09:55:19;19.50;;;17.40;;
2259;SDS011;333;48.800;9.530;2022-08-19T09:57:46;22.43;;;17.70;;
2259;SDS011;333;48.800;9.530;2022-08-19T10:00:14;20.67;;;18.47;;
2259;SDS011;333;48.800;9.530;2022-08-19T10:02:41;21.23;;;18.90;;
2259;SDS011;333;48.800;9.530;2022-08-19T10:05:08;22.10;;;19.73;;
2259;SDS011;333;48.800;9.530;2022-08-19T10:07:54;23.03;;;20.30;;
2259;SDS011;333;48.800;9.530;2022-08-19T10:10:22;21.63;;;17.70;;
2259;SDS011;333;48.800;9.530;2022-08-19T10:12:49;22.17;;;18.03;;
2259;SDS011;333;48.800;9.530;2022-08-19T10:15:17;22.57;;;18.10;;
2259;SDS011;333;48.800;9.530;2022-08-19T10:17:46;20.30;;;17.57;;
2259;SDS011;333;48.800;9.530;2022-08-19T10:20:13;20.00;;;18.00;;
2259;SDS011;333;48.800;9.530;2022-08-19T10:22:40;23.30;;;20.83;;
2259;SDS011;333;48.800;9.530;2022-08-19T10:25:09;20.60;;;17.20;;
2259;SDS011;333;48.800;9.530;2022-08-19T10:27:41;25.93;;;17.77;;
2259;SDS011;333;48.800;9.530;2022-08-19T10:30:09;20.17;;;17.97;;
2259;SDS011;333;48.800;9.530;2022-08-19T10:32:36;20.07;;;18.00;;
2259;SDS011;333;48.800;9.530;2022-08-19T10:35:03;19.23;;;17.27;;
2259;SDS011;333;48.800;9.530;2022-08-19T10:37:33;22.57;;;19.37;;
2259;SDS011;333;48.800;9.530;2022-08-19T10:40:00;22.00;;;18.53;;
2259;SDS011;333;48.800;9.530;2022-08-19T10:42:29;20.50;;;18.30;;
2259;SDS011;333;48.800;9.530;2022-08-19T10:44:56;22.30;;;19.60;;
2259;SDS011;333;48.800;9.530;2022-08-19T10:47:23;20.47;;;17.93;;
2259;SDS011;333;48.800;9.530;2022-08-19T10:49:51;23.80;;;19.57;;
2259;SDS011;333;48.800;9.530;2022-08-19T10:52:36;21.00;;;18.00;;
2259;SDS011;333;48.800;9.530;2022-08-19T10:55:04;22.37;;;19.30;;
2259;SDS011;333;48.800;9.530;2022-08-19T10:57:50;21.47;;;17.73;;
2259;SDS011;333;48.800;9.530;2022-08-19T11:00:18;21.63;;;18.70;;
2259;SDS011;333;48.800;9.530;2022-08-19T11:02:45;21.90;;;19.67;;
2259;SDS011;333;48.800;9.530;2022-08-19T11:05:13;18.67;;;16.73;;
2259;SDS011;333;48.800;9.530;2022-08-19T11:07:41;21.13;;;17.77;;
2259;SDS011;333;48.800;9.530;2022-08-19T11:10:09;19.20;;;17.27;;
2259;SDS011;333;48.800;9.530;2022-08-19T11:12:38;19.97;;;17.87;;
2259;SDS011;333;48.800;9.530;2022-08-19T11:15:07;17.80;;;16.00;;
2259;SDS011;333;48.800;9.530;2022-08-19T11:17:36;18.03;;;15.83;;
2259;SDS011;333;48.800;9.530;2022-08-19T11:20:08;18.40;;;16.50;;
2259;SDS011;333;48.800;9.530;2022-08-19T11:22:36;20.00;;;17.90;;
2259;SDS011;333;48.800;9.530;2022-08-19T11:25:05;18.80;;;16.83;;
2259;SDS011;333;48.800;9.530;2022-08-19T11:27:32;21.17;;;18.17;;
2259;SDS011;333;48.800;9.530;2022-08-19T11:30:00;20.33;;;16.93;;
2259;SDS011;333;48.800;9.530;2022-08-19T11:32:30;18.97;;;16.97;;
2259;SDS011;333;48.800;9.530;2022-08-19T11:34:57;19.77;;;17.73;;
2259;SDS011;333;48.800;9.530;2022-08-19T11:37:24;24.30;;;18.17;;
2259;SDS011;333;48.800;9.530;2022-08-19T11:39:52;20.63;;;17.90;;
2259;SDS011;333;48.800;9.530;2022-08-19T11:42:19;20.33;;;17.47;;
2259;SDS011;333;48.800;9.530;2022-08-19T11:45:04;20.70;;;18.40;;
2259;SDS011;333;48.800;9.530;2022-08-19T11:47:33;18.73;;;16.93;;
2259;SDS011;333;48.800;9.530;2022-08-19T11:50:01;17.90;;;16.00;;
2259;SDS011;333;48.800;9.530;2022-08-19T11:52:29;19.17;;;17.30;;
2259;SDS011;333;48.800;9.530;2022-08-19T11:54:56;19.57;;;16.17;;
2259;SDS011;333;48.800;9.530;2022-08-19T11:57:23;22.63;;;16.97;;
2259;SDS011;333;48.800;9.530;2022-08-19T11:59:51;21.40;;;19.10;;
2259;SDS011;333;48.800;9.530;2022-08-19T12:02:18;20.50;;;17.40;;
2259;SDS011;333;48.800;9.530;2022-08-19T12:04:48;22.83;;;18.97;;
2259;SDS011;333;48.800;9.530;2022-08-19T12:07:15;20.50;;;18.23;;
2259;SDS011;333;48.800;9.530;2022-08-19T12:09:42;24.40;;;19.07;;
2259;SDS011;333;48.800;9.530;2022-08-19T12:12:09;22.07;;;19.60;;
2259;SDS011;333;48.800;9.530;2022-08-19T12:14:36;24.07;;;20.80;;
2259;SDS011;333;48.800;9.530;2022-08-19T12:17:04;24.53;;;21.90;;
2259;SDS011;333;48.800;9.530;2022-08-19T12:19:32;23.73;;;20.50;;
2259;SDS011;333;48.800;9.530;2022-08-19T12:22:01;26.43;;;22.67;;
2259;SDS011;333;48.800;9.530;2022-08-19T12:24:30;23.70;;;21.10;;
2259;SDS011;333;48.800;9.530;2022-08-19T12:26:58;24.90;;;20.70;;
2259;SDS011;333;48.800;9.530;2022-08-19T12:29:26;24.67;;;20.93;;
2259;SDS011;333;48.800;9.530;2022-08-19T12:31:54;30.63;;;23.67;;
2259;SDS011;333;48.800;9.530;2022-08-19T12:34:25;24.50;;;21.90;;
2259;SDS011;333;48.800;9.530;2022-08-19T12:36:55;27.83;;;23.93;;
2259;SDS011;333;48.800;9.530;2022-08-19T12:39:24;27.27;;;24.30;;
2259;SDS011;333;48.800;9.530;2022-08-19T12:41:51;25.33;;;22.60;;
2259;SDS011;333;48.800;9.530;2022-08-19T12:44:18;28.90;;;22.53;;
2259;SDS011;333;48.800;9.530;2022-08-19T12:46:46;26.67;;;22.00;;
2259;SDS011;333;48.800;9.530;2022-08-19T12:49:14;27.37;;;23.40;;
2259;SDS011;333;48.800;9.530;2022-08-19T12:51:41;25.20;;;22.37;;
2259;SDS011;333;48.800;9.530;2022-08-19T12:54:08;25.20;;;22.50;;
2259;SDS011;333;48.800;9.530;2022-08-19T12:56:37;29.50;;;22.13;;
2259;SDS011;333;48.800;9.530;2022-08-19T12:59:04;25.07;;;20.67;;
2259;SDS011;333;48.800;9.530;2022-08-19T13:01:33;23.63;;;20.87;;
2259;SDS011;333;48.800;9.530;2022-08-19T13:04:00;22.00;;;19.57;;
2259;SDS011;333;48.800;9.530;2022-08-19T13:06:27;26.37;;;21.40;;
2259;SDS011;333;48.800;9.530;2022-08-19T13:08:55;24.90;;;21.43;;
2259;SDS011;333;48.800;9.530;2022-08-19T13:11:22;22.20;;;19.63;;
2259;SDS011;333;48.800;9.530;2022-08-19T13:13:52;23.43;;;20.93;;
2259;SDS011;333;48.800;9.530;2022-08-19T13:16:20;25.07;;;20.70;;
2259;SDS011;333;48.800;9.530;2022-08-19T13:18:47;25.20;;;22.53;;
2259;SDS011;333;48.800;9.530;2022-08-19T13:21:17;24.20;;;21.70;;
2259;SDS011;333;48.800;9.530;2022-08-19T13:23:45;22.73;;;20.33;;
2259;SDS011;333;48.800;9.530;2022-08-19T13:26:13;25.87;;;23.07;;
2259;SDS011;333;48.800;9.530;2022-08-19T13:28:40;24.70;;;20.40;;
2259;SDS011;333;48.800;9.530;2022-08-19T13:31:28;23.93;;;21.27;;
2259;SDS011;333;48.800;9.530;2022-08-19T13:34:13;22.57;;;20.17;;
2259;SDS011;333;48.800;9.530;2022-08-19T13:36:40;25.33;;;21.80;;
2259;SDS011;333;48.800;9.530;2022-08-19T13:39:08;23.07;;;20.50;;
2259;SDS011;333;48.800;9.530;2022-08-19T13:41:35;22.67;;;19.30;;
2259;SDS011;333;48.800;9.530;2022-08-19T13:44:03;22.30;;;20.00;;
2259;SDS011;333;48.800;9.530;2022-08-19T13:46:32;23.30;;;20.83;;
2259;SDS011;333;48.800;9.530;2022-08-19T13:48:59;22.60;;;18.90;;
2259;SDS011;333;48.800;9.530;2022-08-19T13:51:26;21.20;;;18.93;;
2259;SDS011;333;48.800;9.530;2022-08-19T13:53:54;24.13;;;20.70;;
2259;SDS011;333;48.800;9.530;2022-08-19T13:56:21;22.00;;;19.50;;
2259;SDS011;333;48.800;9.530;2022-08-19T13:58:48;22.13;;;19.67;;
2259;SDS011;333;48.800;9.530;2022-08-19T14:01:18;26.80;;;21.93;;
2259;SDS011;333;48.800;9.530;2022-08-19T14:03:47;22.23;;;19.73;;
2259;SDS011;333;48.800;9.530;2022-08-19T14:06:14;21.73;;;18.60;;
2259;SDS011;333;48.800;9.530;2022-08-19T14:08:43;17.20;;;15.40;;
2259;SDS011;333;48.800;9.530;2022-08-19T14:11:10;17.57;;;15.87;;
2259;SDS011;333;48.800;9.530;2022-08-19T14:13:37;15.63;;;14.03;;
2259;SDS011;333;48.800;9.530;2022-08-19T14:16:07;20.43;;;17.60;;
2259;SDS011;333;48.800;9.530;2022-08-19T14:18:35;20.37;;;18.37;;
2259;SDS011;333;48.800;9.530;2022-08-19T14:21:04;19.97;;;17.60;;
2259;SDS011;333;48.800;9.530;2022-08-19T14:23:31;18.53;;;16.40;;
2259;SDS011;333;48.800;9.530;2022-08-19T14:26:05;20.67;;;18.60;;
2259;SDS011;333;48.800;9.530;2022-08-19T14:28:32;18.87;;;16.57;;
2259;SDS011;333;48.800;9.530;2022-08-19T14:30:59;21.10;;;17.40;;
2259;SDS011;333;48.800;9.530;2022-08-19T14:33:26;21.43;;;18.27;;
2259;SDS011;333;48.800;9.530;2022-08-19T14:35:53;23.33;;;20.27;;
2259;SDS011;333;48.800;9.530;2022-08-19T14:38:22;21.50;;;19.27;;
2259;SDS011;333;48.800;9.530;2022-08-19T14:40:49;19.30;;;17.13;;
2259;SDS011;333;48.800;9.530;2022-08-19T14:43:17;19.20;;;17.17;;
2259;SDS011;333;48.800;9.530;2022-08-19T14:45:44;18.63;;;16.63;;
2259;SDS011;333;48.800;9.530;2022-08-19T14:48:11;20.30;;;18.23;;
2259;SDS011;333;48.800;9.530;2022-08-19T14:50:39;20.57;;;18.53;;
2259;SDS011;333;48.800;9.530;2022-08-19T14:53:06;18.23;;;16.47;;
2259;SDS011;333;48.800;9.530;2022-08-19T14:55:35;17.70;;;15.80;;
2259;SDS011;333;48.800;9.530;2022-08-19T14:58:02;17.93;;;16.13;;
2259;SDS011;333;48.800;9.530;2022-08-19T15:00:29;19.73;;;17.60;;
2259;SDS011;333;48.800;9.530;2022-08-19T15:02:57;19.00;;;17.00;;
2259;SDS011;333;48.800;9.530;2022-08-19T15:05:24;20.77;;;18.57;;
2259;SDS011;333;48.800;9.530;2022-08-19T15:07:52;20.60;;;18.47;;